Time,TemperatureF,DewpointF,PressureIn,WindDirection,WindDirectionDegrees,WindSpeedMPH,WindSpeedGustMPH,Humidity,HourlyPrecipIn,Conditions,Clouds,dailyrainin,SolarRadiationWatts/m^2,SoftwareType,DateUTC
2013-03-09 00:03:00,45.1,39.6,29.93,South,184,0.0,0.0,81,0.00,,,0.00,0,Wunderground v.1.15,2013-03-09 08:03:00,
2013-03-09 00:12:00,45.1,39.6,29.93,South,184,0.0,0.0,81,0.00,,,0.00,0,Wunderground v.1.15,2013-03-09 08:12:00,
2013-03-09 00:22:00,44.9,39.1,29.94,South,184,0.0,0.0,80,0.00,,,0.00,0,Wunderground v.1.15,2013-03-09 08:22:00,
2013-03-09 00:33:00,45.1,39.6,29.94,SE,140,0.0,0.0,81,0.00,,,0.00,0,Wunderground v.1.15,2013-03-09 08:33:00,
2013-03-09 00:42:00,44.9,39.7,29.94,SE,140,0.0,0.0,82,0.00,,,0.00,0,Wunderground v.1.15,2013-03-09 08:42:00,
2013-03-09 00:52:00,44.8,39.6,29.95,SE,140,0.0,0.0,82,0.00,,,0.00,0,Wunderground v.1.15,2013-03-09 08:52:00,
2013-03-09 01:02:00,44.8,39.6,29.95,SE,140,0.0,0.0,82,0.00,,,0.00,0,Wunderground v.1.15,2013-03-09 09:02:00,
2013-03-09 01:12:00,44.5,39.3,29.95,SE,140,0.0,0.0,82,0.00,,,0.00,0,Wunderground v.1.15,2013-03-09 09:12:00,
2013-03-09 01:22:00,44.5,39.3,29.96,SE,140,0.0,0.0,82,0.00,,,0.00,0,Wunderground v.1.15,2013-03-09 09:22:00,
2013-03-09 01:32:00,44.3,39.5,29.96,SE,140,0.0,0.0,83,0.00,,,0.00,0,Wunderground v.1.15,2013-03-09 09:32:00,
2013-03-09 01:47:00,44.2,39.1,29.96,SE,140,0.0,0.0,82,0.00,,,0.00,0,Wunderground v.1.15,2013-03-09 09:47:00,
2013-03-09 01:52:00,44.2,39.1,29.96,SE,140,0.0,0.0,82,0.00,,,0.00,0,Wunderground v.1.15,2013-03-09 09:52:00,
2013-03-09 02:02:00,44.2,39.1,29.96,SE,140,0.0,0.0,82,0.00,,,0.00,0,Wunderground v.1.15,2013-03-09 10:02:00,
2013-03-09 02:12:00,44.3,38.5,29.96,SE,140,0.0,0.0,80,0.00,,,0.00,0,Wunderground v.1.15,2013-03-09 10:12:00,
2013-03-09 02:22:00,44.3,38.2,29.95,South,171,0.0,0.0,79,0.00,,,0.00,0,Wunderground v.1.15,2013-03-09 10:22:00,
2013-03-09 02:32:00,44.5,38.4,29.95,SE,145,0.0,0.0,79,0.00,,,0.00,0,Wunderground v.1.15,2013-03-09 10:32:00,
2013-03-09 02:42:00,44.5,38.4,29.95,SSE,148,0.0,0.0,79,0.00,,,0.00,0,Wunderground v.1.15,2013-03-09 10:42:00,
2013-03-09 02:52:00,44.5,38.7,29.95,SSE,148,0.0,0.0,80,0.00,,,0.00,0,Wunderground v.1.15,2013-03-09 10:52:00,
2013-03-09 03:02:00,44.5,38.4,29.95,ESE,112,0.0,0.0,79,0.00,,,0.00,0,Wunderground v.1.15,2013-03-09 11:02:00,
2013-03-09 03:12:00,44.5,38.4,29.95,ESE,114,0.0,1.0,79,0.00,,,0.00,0,Wunderground v.1.15,2013-03-09 11:12:00,
2013-03-09 03:22:00,44.5,38.4,29.95,ESE,114,0.0,0.0,79,0.00,,,0.00,0,Wunderground v.1.15,2013-03-09 11:22:00,
2013-03-09 03:32:00,44.6,38.8,29.96,ESE,114,0.0,0.0,80,0.00,,,0.00,0,Wunderground v.1.15,2013-03-09 11:32:00,
2013-03-09 03:42:00,44.6,39.1,29.96,ESE,114,0.0,0.0,81,0.00,,,0.00,0,Wunderground v.1.15,2013-03-09 11:42:00,
2013-03-09 03:52:00,44.6,39.1,29.97,ESE,114,0.0,0.0,81,0.00,,,0.00,0,Wunderground v.1.15,2013-03-09 11:52:00,
2013-03-09 04:02:00,44.6,39.4,29.98,ESE,114,0.0,0.0,82,0.00,,,0.00,0,Wunderground v.1.15,2013-03-09 12:02:00,
2013-03-09 04:12:00,44.6,39.4,29.98,ESE,121,0.0,1.0,82,0.00,,,0.00,0,Wunderground v.1.15,2013-03-09 12:12:00,
2013-03-09 04:23:00,44.6,39.4,29.99,SE,134,0.0,0.0,82,0.00,,,0.00,0,Wunderground v.1.15,2013-03-09 12:23:00,
2013-03-09 04:32:00,44.6,39.4,30.00,WNW,294,0.0,2.0,82,0.00,,,0.00,0,Wunderground v.1.15,2013-03-09 12:32:00,
2013-03-09 04:42:00,44.6,39.4,30.00,WNW,296,0.0,0.0,82,0.00,,,0.00,0,Wunderground v.1.15,2013-03-09 12:42:00,
2013-03-09 04:52:00,44.8,40.0,30.01,WNW,296,0.0,0.0,83,0.00,,,0.00,0,Wunderground v.1.15,2013-03-09 12:52:00,
2013-03-09 05:02:00,44.6,39.8,30.02,WNW,296,0.0,0.0,83,0.00,,,0.00,0,Wunderground v.1.15,2013-03-09 13:02:00,
2013-03-09 05:12:00,44.8,40.3,30.02,WNW,295,0.0,0.0,84,0.00,,,0.00,0,Wunderground v.1.15,2013-03-09 13:12:00,
2013-03-09 05:22:00,44.8,40.3,30.02,WNW,295,0.0,0.0,84,0.00,,,0.00,0,Wunderground v.1.15,2013-03-09 13:22:00,
2013-03-09 05:32:00,44.8,40.3,30.02,South,175,0.0,0.0,84,0.00,,,0.00,0,Wunderground v.1.15,2013-03-09 13:32:00,
2013-03-09 05:42:00,44.8,40.3,30.02,South,175,0.0,0.0,84,0.00,,,0.00,0,Wunderground v.1.15,2013-03-09 13:42:00,
2013-03-09 05:52:00,44.8,40.3,30.03,South,175,0.0,0.0,84,0.00,,,0.00,0,Wunderground v.1.15,2013-03-09 13:52:00,
2013-03-09 06:02:00,44.8,40.6,30.04,South,175,0.0,0.0,85,0.00,,,0.00,0,Wunderground v.1.15,2013-03-09 14:02:00,
2013-03-09 06:12:00,44.9,40.7,30.04,South,175,0.0,0.0,85,0.00,,,0.00,0,Wunderground v.1.15,2013-03-09 14:12:00,
2013-03-09 06:23:00,44.9,40.7,30.04,South,175,0.0,0.0,85,0.00,,,0.00,0,Wunderground v.1.15,2013-03-09 14:23:00,
2013-03-09 06:32:00,44.9,40.7,30.04,South,175,0.0,0.0,85,0.00,,,0.00,0,Wunderground v.1.15,2013-03-09 14:32:00,
2013-03-09 06:42:00,44.9,40.7,30.04,South,175,0.0,0.0,85,0.00,,,0.00,0,Wunderground v.1.15,2013-03-09 14:42:00,
2013-03-09 06:53:00,45.1,40.9,30.04,South,175,0.0,0.0,85,0.00,,,0.00,0,Wunderground v.1.15,2013-03-09 14:53:00,
2013-03-09 07:02:00,45.1,40.9,30.05,SSE,165,0.0,0.0,85,0.00,,,0.00,0,Wunderground v.1.15,2013-03-09 15:02:00,
2013-03-09 07:12:00,45.2,41.0,30.05,SSE,165,0.0,0.0,85,0.00,,,0.00,9,Wunderground v.1.15,2013-03-09 15:12:00,
2013-03-09 07:22:00,45.2,40.7,30.05,SSE,165,0.0,0.0,84,0.00,,,0.00,12,Wunderground v.1.15,2013-03-09 15:22:00,
2013-03-09 07:32:00,45.5,40.9,30.06,SSE,165,0.0,0.0,84,0.00,,,0.00,14,Wunderground v.1.15,2013-03-09 15:32:00,
2013-03-09 07:42:00,45.7,40.8,30.06,SSE,165,0.0,0.0,83,0.00,,,0.00,11,Wunderground v.1.15,2013-03-09 15:42:00,
2013-03-09 07:52:00,45.8,41.2,30.07,SSE,165,0.0,0.0,84,0.00,,,0.00,18,Wunderground v.1.15,2013-03-09 15:52:00,
2013-03-09 08:03:00,46.0,40.8,30.07,SSE,165,0.0,0.0,82,0.00,,,0.00,42,Wunderground v.1.15,2013-03-09 16:03:00,
2013-03-09 08:12:00,46.4,41.2,30.07,WSW,258,0.0,0.0,82,0.00,,,0.00,40,Wunderground v.1.15,2013-03-09 16:12:00,
2013-03-09 08:22:00,46.8,40.6,30.08,WSW,258,0.0,0.0,79,0.00,,,0.00,49,Wunderground v.1.15,2013-03-09 16:22:00,
2013-03-09 08:33:00,47.6,40.4,30.08,WSW,258,0.0,0.0,76,0.00,,,0.00,100,Wunderground v.1.15,2013-03-09 16:33:00,
2013-03-09 08:42:00,48.6,40.7,30.08,West,274,0.0,0.0,74,0.00,,,0.00,375,Wunderground v.1.15,2013-03-09 16:42:00,
2013-03-09 08:52:00,50.5,41.1,30.08,West,274,0.0,0.0,70,0.00,,,0.00,403,Wunderground v.1.15,2013-03-09 16:52:00,
2013-03-09 09:02:00,51.4,40.8,30.08,West,274,0.0,0.0,67,0.00,,,0.00,435,Wunderground v.1.15,2013-03-09 17:02:00,
2013-03-09 09:12:00,52.3,41.7,30.08,West,274,0.0,0.0,67,0.00,,,0.00,65,Wunderground v.1.15,2013-03-09 17:12:00,
2013-03-09 09:22:00,52.6,42.3,30.08,West,274,0.0,0.0,68,0.00,,,0.00,84,Wunderground v.1.15,2013-03-09 17:22:00,
2013-03-09 09:32:00,52.9,42.2,30.09,West,274,0.0,0.0,67,0.00,,,0.00,62,Wunderground v.1.15,2013-03-09 17:32:00,
2013-03-09 09:43:00,53.1,42.4,30.09,West,267,0.0,0.0,67,0.00,,,0.00,95,Wunderground v.1.15,2013-03-09 17:43:00,
2013-03-09 09:52:00,53.2,42.5,30.09,West,267,0.0,0.0,67,0.00,,,0.00,99,Wunderground v.1.15,2013-03-09 17:52:00,
2013-03-09 10:03:00,53.9,40.8,30.09,South,171,0.0,0.0,61,0.00,,,0.00,72,Wunderground v.1.15,2013-03-09 18:03:00,
2013-03-09 10:12:00,54.8,40.3,30.09,South,171,0.0,0.0,58,0.00,,,0.00,201,Wunderground v.1.15,2013-03-09 18:12:00,
2013-03-09 10:22:00,55.7,40.7,30.09,SE,128,0.0,0.0,57,0.00,,,0.00,102,Wunderground v.1.15,2013-03-09 18:22:00,
2013-03-09 10:32:00,56.3,39.4,30.09,ESE,107,0.0,0.0,53,0.00,,,0.00,74,Wunderground v.1.15,2013-03-09 18:32:00,
2013-03-09 10:42:00,56.6,39.2,30.09,SE,128,0.0,0.0,52,0.00,,,0.00,95,Wunderground v.1.15,2013-03-09 18:42:00,
2013-03-09 10:52:00,57.0,40.0,30.09,SE,128,0.0,0.0,53,0.00,,,0.00,70,Wunderground v.1.15,2013-03-09 18:52:00,
2013-03-09 11:02:00,57.3,39.3,30.10,SSE,160,0.0,0.0,51,0.00,,,0.00,91,Wunderground v.1.15,2013-03-09 19:02:00,
2013-03-09 11:12:00,57.5,37.9,30.10,SE,131,0.0,0.0,48,0.00,,,0.00,294,Wunderground v.1.15,2013-03-09 19:12:00,
2013-03-09 11:22:00,58.1,36.9,30.11,SW,219,0.0,0.0,45,0.00,,,0.00,150,Wunderground v.1.15,2013-03-09 19:22:00,
2013-03-09 11:32:00,58.9,41.3,30.11,SSE,148,0.0,0.0,52,0.00,,,0.00,480,Wunderground v.1.15,2013-03-09 19:32:00,
2013-03-09 11:42:00,59.3,39.6,30.11,SW,226,0.0,0.0,48,0.00,,,0.00,99,Wunderground v.1.15,2013-03-09 19:42:00,
2013-03-09 11:53:00,59.3,39.1,30.12,SE,136,0.0,0.0,47,0.00,,,0.00,176,Wunderground v.1.15,2013-03-09 19:53:00,
2013-03-09 12:02:00,59.2,39.0,30.11,SE,144,1.0,1.0,47,0.00,,,0.00,70,Wunderground v.1.15,2013-03-09 20:02:00,
2013-03-09 12:12:00,59.3,39.1,30.11,SSE,150,0.0,0.0,47,0.00,,,0.00,97,Wunderground v.1.15,2013-03-09 20:12:00,
2013-03-09 12:22:00,59.6,38.8,30.10,SSE,148,0.0,0.0,46,0.00,,,0.00,86,Wunderground v.1.15,2013-03-09 20:22:00,
2013-03-09 12:32:00,59.9,39.1,30.10,SSE,147,0.0,0.0,46,0.00,,,0.00,188,Wunderground v.1.15,2013-03-09 20:32:00,
2013-03-09 12:42:00,59.8,37.8,30.10,SE,127,1.0,1.0,44,0.00,,,0.00,76,Wunderground v.1.15,2013-03-09 20:42:00,
2013-03-09 12:52:00,60.4,37.8,30.10,SSE,167,1.0,1.0,43,0.00,,,0.00,748,Wunderground v.1.15,2013-03-09 20:52:00,
2013-03-09 13:03:00,60.7,38.1,30.10,SE,145,0.0,1.0,43,0.00,,,0.00,97,Wunderground v.1.15,2013-03-09 21:03:00,
2013-03-09 13:13:00,60.7,38.6,30.10,West,261,0.0,0.0,44,0.00,,,0.00,79,Wunderground v.1.15,2013-03-09 21:13:00,
2013-03-09 13:22:00,60.7,36.2,30.10,SE,144,0.0,0.0,40,0.00,,,0.00,62,Wunderground v.1.15,2013-03-09 21:22:00,
2013-03-09 13:32:00,60.9,38.8,30.10,SSE,148,0.0,0.0,44,0.00,,,0.00,77,Wunderground v.1.15,2013-03-09 21:32:00,
2013-03-09 13:42:00,61.0,37.1,30.10,SSE,152,0.0,0.0,41,0.00,,,0.00,58,Wunderground v.1.15,2013-03-09 21:42:00,
2013-03-09 13:53:00,60.9,35.1,30.10,SSE,154,0.0,0.0,38,0.00,,,0.00,56,Wunderground v.1.15,2013-03-09 21:53:00,
2013-03-09 14:02:00,60.9,37.0,30.10,South,188,0.0,0.0,41,0.00,,,0.00,55,Wunderground v.1.15,2013-03-09 22:02:00,
2013-03-09 14:13:00,60.9,35.8,30.10,SSW,209,0.0,0.0,39,0.00,,,0.00,55,Wunderground v.1.15,2013-03-09 22:13:00,
2013-03-09 14:22:00,60.9,34.4,30.09,SSE,150,1.0,1.0,37,0.00,,,0.00,49,Wunderground v.1.15,2013-03-09 22:22:00,
2013-03-09 14:32:00,61.0,33.1,30.09,SSE,150,1.0,1.0,35,0.00,,,0.00,46,Wunderground v.1.15,2013-03-09 22:32:00,
2013-03-09 14:42:00,61.0,33.1,30.09,West,270,1.0,1.0,35,0.00,,,0.00,42,Wunderground v.1.15,2013-03-09 22:42:00,
2013-03-09 14:53:00,61.2,34.0,30.09,SSE,150,0.0,0.0,36,0.00,,,0.00,39,Wunderground v.1.15,2013-03-09 22:53:00,
2013-03-09 15:02:00,61.2,34.0,30.09,SSE,150,1.0,1.0,36,0.00,,,0.00,35,Wunderground v.1.15,2013-03-09 23:02:00,
2013-03-09 15:12:00,61.3,34.1,30.09,South,186,1.0,1.0,36,0.00,,,0.00,28,Wunderground v.1.15,2013-03-09 23:12:00,
2013-03-09 15:22:00,61.3,34.1,30.09,SE,134,1.0,1.0,36,0.00,,,0.00,26,Wunderground v.1.15,2013-03-09 23:22:00,
2013-03-09 15:32:00,61.0,34.5,30.09,SE,138,1.0,2.0,37,0.00,,,0.00,26,Wunderground v.1.15,2013-03-09 23:32:00,
2013-03-09 15:42:00,61.0,33.8,30.09,SSE,164,1.0,1.0,36,0.00,,,0.00,19,Wunderground v.1.15,2013-03-09 23:42:00,
2013-03-09 15:52:00,60.9,35.8,30.09,SSE,150,0.0,0.0,39,0.00,,,0.00,16,Wunderground v.1.15,2013-03-09 23:52:00,
2013-03-09 16:03:00,60.5,35.4,30.09,SSE,151,0.0,0.0,39,0.00,,,0.00,14,Wunderground v.1.15,2013-03-10 00:03:00,
2013-03-09 16:13:00,60.2,34.5,30.09,South,176,1.0,1.0,38,0.00,,,0.00,9,Wunderground v.1.15,2013-03-10 00:13:00,
2013-03-09 16:22:00,59.8,36.6,30.08,South,175,0.0,0.0,42,0.00,,,0.00,0,Wunderground v.1.15,2013-03-10 00:22:00,
2013-03-09 16:32:00,59.5,37.6,30.09,SSE,157,0.0,0.0,44,0.00,,,0.00,0,Wunderground v.1.15,2013-03-10 00:32:00,
2013-03-09 16:42:00,59.2,37.3,30.09,SSE,157,0.0,0.0,44,0.00,,,0.00,0,Wunderground v.1.15,2013-03-10 00:42:00,
2013-03-09 16:52:00,58.9,36.4,30.08,SSW,198,0.0,0.0,43,0.00,,,0.00,0,Wunderground v.1.15,2013-03-10 00:52:00,
2013-03-09 17:02:00,58.3,39.7,30.09,SSW,198,0.0,0.0,50,0.00,,,0.00,0,Wunderground v.1.15,2013-03-10 01:02:00,
2013-03-09 17:12:00,57.6,40.1,30.09,SSW,198,0.0,0.0,52,0.00,,,0.00,0,Wunderground v.1.15,2013-03-10 01:12:00,
2013-03-09 17:22:00,57.0,39.5,30.10,SSW,198,0.0,0.0,52,0.00,,,0.00,0,Wunderground v.1.15,2013-03-10 01:22:00,
2013-03-09 17:32:00,56.6,41.5,30.10,SSW,198,0.0,0.0,57,0.00,,,0.00,0,Wunderground v.1.15,2013-03-10 01:32:00,
2013-03-09 17:42:00,56.0,41.4,30.10,SSW,198,0.0,0.0,58,0.00,,,0.00,0,Wunderground v.1.15,2013-03-10 01:42:00,
2013-03-09 17:57:00,55.1,40.6,30.10,SSW,198,0.0,0.0,58,0.00,,,0.00,0,Wunderground v.1.15,2013-03-10 01:57:00,
2013-03-09 18:02:00,54.8,41.6,30.11,SSW,198,0.0,0.0,61,0.00,,,0.00,0,Wunderground v.1.15,2013-03-10 02:02:00,
2013-03-09 18:12:00,54.7,40.6,30.11,NW,313,0.0,0.0,59,0.00,,,0.00,0,Wunderground v.1.15,2013-03-10 02:12:00,
2013-03-09 18:22:00,54.5,41.7,30.11,NW,313,0.0,0.0,62,0.00,,,0.00,0,Wunderground v.1.15,2013-03-10 02:22:00,
2013-03-09 18:32:00,53.9,42.4,30.12,NW,313,0.0,0.0,65,0.00,,,0.00,0,Wunderground v.1.15,2013-03-10 02:32:00,
2013-03-09 18:43:00,53.3,41.8,30.12,NW,313,0.0,0.0,65,0.00,,,0.00,0,Wunderground v.1.15,2013-03-10 02:43:00,
2013-03-09 18:52:00,52.9,42.2,30.12,NW,313,0.0,0.0,67,0.00,,,0.00,0,Wunderground v.1.15,2013-03-10 02:52:00,
2013-03-09 19:03:00,52.3,42.0,30.12,NW,313,0.0,0.0,68,0.00,,,0.00,0,Wunderground v.1.15,2013-03-10 03:03:00,
2013-03-09 19:12:00,51.7,41.9,30.12,NW,313,0.0,0.0,69,0.00,,,0.00,0,Wunderground v.1.15,2013-03-10 03:12:00,
2013-03-09 19:22:00,51.1,41.3,30.13,NW,313,0.0,0.0,69,0.00,,,0.00,0,Wunderground v.1.15,2013-03-10 03:22:00,
2013-03-09 19:32:00,50.7,41.3,30.13,NW,313,0.0,0.0,70,0.00,,,0.00,0,Wunderground v.1.15,2013-03-10 03:32:00,
2013-03-09 19:43:00,50.4,40.6,30.13,NW,313,0.0,0.0,69,0.00,,,0.00,0,Wunderground v.1.15,2013-03-10 03:43:00,
2013-03-09 19:52:00,50.1,40.3,30.13,NW,313,0.0,0.0,69,0.00,,,0.00,0,Wunderground v.1.15,2013-03-10 03:52:00,
2013-03-09 20:07:00,49.8,40.8,30.14,NW,313,0.0,0.0,71,0.00,,,0.00,0,Wunderground v.1.15,2013-03-10 04:07:00,
2013-03-09 20:12:00,49.8,41.1,30.14,NW,313,0.0,0.0,72,0.00,,,0.00,0,Wunderground v.1.15,2013-03-10 04:12:00,
2013-03-09 20:22:00,49.5,40.8,30.14,NW,313,0.0,0.0,72,0.00,,,0.00,0,Wunderground v.1.15,2013-03-10 04:22:00,
2013-03-09 20:32:00,49.2,40.6,30.15,NW,313,0.0,0.0,72,0.00,,,0.00,0,Wunderground v.1.15,2013-03-10 04:32:00,
2013-03-09 20:43:00,48.8,40.5,30.15,NW,313,0.0,0.0,73,0.00,,,0.00,0,Wunderground v.1.15,2013-03-10 04:43:00,
2013-03-09 20:52:00,48.5,40.6,30.15,NW,313,0.0,0.0,74,0.00,,,0.00,0,Wunderground v.1.15,2013-03-10 04:52:00,
2013-03-09 21:02:00,48.3,40.4,30.15,NW,313,0.0,0.0,74,0.00,,,0.00,0,Wunderground v.1.15,2013-03-10 05:02:00,
2013-03-09 21:11:00,48.0,40.5,30.15,NW,313,0.0,0.0,75,0.00,,,0.00,0,Wunderground v.1.15,2013-03-10 05:11:00,
2013-03-09 21:22:00,47.9,40.4,30.15,NW,313,0.0,0.0,75,0.00,,,0.00,0,Wunderground v.1.15,2013-03-10 05:22:00,
2013-03-09 21:26:00,47.9,40.4,30.15,NW,313,0.0,0.0,75,0.00,,,0.00,0,Wunderground v.1.15,2013-03-10 05:26:00,
2013-03-09 21:31:00,47.7,40.2,30.15,NW,313,0.0,0.0,75,0.00,,,0.00,0,Wunderground v.1.15,2013-03-10 05:31:00,
2013-03-09 21:41:00,47.6,39.7,30.15,NW,313,0.0,0.0,74,0.00,,,0.00,0,Wunderground v.1.15,2013-03-10 05:41:00,
2013-03-09 21:51:00,47.4,40.2,30.15,NW,313,0.0,0.0,76,0.00,,,0.00,0,Wunderground v.1.15,2013-03-10 05:51:00,
2013-03-09 22:01:00,47.1,39.6,30.15,NW,313,0.0,0.0,75,0.00,,,0.00,0,Wunderground v.1.15,2013-03-10 06:01:00,
2013-03-09 22:11:00,47.0,39.1,30.15,NW,313,0.0,0.0,74,0.00,,,0.00,0,Wunderground v.1.15,2013-03-10 06:11:00,
2013-03-09 22:21:00,46.7,39.2,30.15,NW,313,0.0,0.0,75,0.00,,,0.00,0,Wunderground v.1.15,2013-03-10 06:21:00,
2013-03-09 22:31:00,46.2,39.4,30.16,NW,313,0.0,0.0,77,0.00,,,0.00,0,Wunderground v.1.15,2013-03-10 06:31:00,
2013-03-09 22:42:00,46.1,39.3,30.16,NW,313,0.0,0.0,77,0.00,,,0.00,0,Wunderground v.1.15,2013-03-10 06:42:00,
2013-03-09 22:51:00,45.7,38.9,30.15,NW,313,0.0,0.0,77,0.00,,,0.00,0,Wunderground v.1.15,2013-03-10 06:51:00,
2013-03-09 23:01:00,45.2,38.7,30.15,NW,313,0.0,0.0,78,0.00,,,0.00,0,Wunderground v.1.15,2013-03-10 07:01:00,
2013-03-09 23:11:00,44.9,38.8,30.15,NW,313,0.0,0.0,79,0.00,,,0.00,0,Wunderground v.1.15,2013-03-10 07:11:00,
2013-03-09 23:21:00,44.6,38.5,30.15,NW,313,0.0,0.0,79,0.00,,,0.00,0,Wunderground v.1.15,2013-03-10 07:21:00,
2013-03-09 23:31:00,44.5,38.1,30.15,NW,313,0.0,0.0,78,0.00,,,0.00,0,Wunderground v.1.15,2013-03-10 07:31:00,
2013-03-09 23:41:00,44.2,37.8,30.15,NW,313,0.0,0.0,78,0.00,,,0.00,0,Wunderground v.1.15,2013-03-10 07:41:00,
2013-03-09 23:51:00,44.1,38.0,30.15,NW,313,0.0,0.0,79,0.00,,,0.00,0,Wunderground v.1.15,2013-03-10 07:51:00,